createdAt,value
2023-04-04T00:01:25.383Z,2.30
2023-04-04T00:03:53.946Z,2.10
2023-04-04T00:06:22.388Z,2.30
2023-04-04T00:08:50.620Z,2.30
2023-04-04T00:11:21.327Z,2.30
2023-04-04T00:13:49.849Z,2.33
2023-04-04T00:16:18.082Z,2.30
2023-04-04T00:18:46.649Z,2.10
2023-04-04T00:21:14.781Z,2.30
2023-04-04T00:23:42.930Z,2.40
2023-04-04T00:26:11.147Z,2.23
2023-04-04T00:28:40.690Z,2.10
2023-04-04T00:31:09.481Z,2.20
2023-04-04T00:33:37.754Z,2.20
2023-04-04T00:36:06.219Z,2.70
2023-04-04T00:38:34.413Z,2.17
2023-04-04T00:41:02.624Z,2.37
2023-04-04T00:43:31.521Z,2.23
2023-04-04T00:46:01.174Z,2.40
2023-04-04T00:48:29.723Z,2.10
2023-04-04T00:50:57.970Z,2.30
2023-04-04T00:53:26.362Z,2.50
2023-04-04T00:55:54.542Z,2.47
2023-04-04T00:58:22.714Z,2.10
2023-04-04T01:00:51.011Z,2.27
2023-04-04T01:03:20.741Z,2.63
2023-04-04T01:05:48.941Z,2.23
2023-04-04T01:08:19.671Z,2.10
2023-04-04T01:10:48.152Z,2.70
2023-04-04T01:13:16.614Z,2.50
2023-04-04T01:15:45.105Z,2.53
2023-04-04T01:18:14.844Z,2.60
2023-04-04T01:20:49.192Z,2.30
2023-04-04T01:23:17.854Z,2.20
2023-04-04T01:25:47.842Z,2.70
2023-04-04T01:28:16.323Z,2.80
2023-04-04T01:30:45.669Z,2.67
2023-04-04T01:33:18.465Z,2.60
2023-04-04T01:35:51.925Z,2.40
2023-04-04T01:38:22.962Z,2.37
2023-04-04T01:40:54.263Z,2.70
2023-04-04T01:43:22.533Z,2.60
2023-04-04T01:45:50.807Z,2.40
2023-04-04T01:48:19.043Z,2.57
2023-04-04T01:50:47.304Z,3.20
2023-04-04T01:53:15.522Z,2.63
2023-04-04T01:55:43.920Z,2.70
2023-04-04T01:58:13.517Z,2.97
2023-04-04T02:00:42.187Z,2.90
2023-04-04T02:03:10.520Z,2.73
2023-04-04T02:05:38.704Z,2.90
2023-04-04T02:08:07.529Z,2.73
2023-04-04T02:10:35.831Z,3.10
2023-04-04T02:13:03.985Z,3.07
2023-04-04T02:15:34.419Z,2.87
2023-04-04T02:18:03.400Z,2.77
2023-04-04T02:20:31.602Z,3.27
2023-04-04T02:22:59.795Z,2.80
2023-04-04T02:25:28.043Z,2.70
2023-04-04T02:27:56.456Z,2.80
2023-04-04T02:30:24.613Z,2.87
2023-04-04T02:32:54.361Z,2.83
2023-04-04T02:35:22.580Z,2.73
2023-04-04T02:37:50.796Z,3.00
2023-04-04T02:40:19.353Z,2.83
2023-04-04T02:42:47.614Z,2.93
2023-04-04T02:45:15.794Z,2.80
2023-04-04T02:47:44.143Z,2.57
2023-04-04T02:50:13.773Z,2.97
2023-04-04T02:52:41.987Z,2.83
2023-04-04T02:55:10.512Z,2.67
2023-04-04T02:57:38.803Z,3.03
2023-04-04T03:00:07.432Z,2.93
2023-04-04T03:02:35.772Z,3.20
2023-04-04T03:05:04.089Z,2.90
2023-04-04T03:07:33.543Z,2.77
2023-04-04T03:10:02.080Z,3.37
2023-04-04T03:12:30.448Z,2.90
2023-04-04T03:14:58.648Z,2.87
2023-04-04T03:17:27.485Z,2.80
2023-04-04T03:19:55.769Z,3.13
2023-04-04T03:22:23.983Z,3.60
2023-04-04T03:24:53.494Z,3.73
2023-04-04T03:27:22.112Z,2.97
2023-04-04T03:29:50.294Z,3.33
2023-04-04T03:32:19.145Z,3.40
2023-04-04T03:34:47.401Z,3.43
2023-04-04T03:37:15.609Z,3.30
2023-04-04T03:39:43.780Z,3.57
2023-04-04T03:42:13.310Z,3.17
2023-04-04T03:44:41.749Z,3.27
2023-04-04T03:47:10.197Z,3.40
2023-04-04T03:49:38.441Z,3.97
2023-04-04T03:52:06.792Z,2.90
2023-04-04T03:54:35.019Z,3.20
2023-04-04T03:57:04.124Z,3.37
2023-04-04T03:59:33.615Z,3.63
2023-04-04T04:02:01.861Z,3.67
2023-04-04T04:04:30.076Z,3.53
2023-04-04T04:06:58.434Z,3.63
2023-04-04T04:09:27.053Z,3.63
2023-04-04T04:11:55.264Z,3.47
2023-04-04T04:14:23.501Z,3.83
2023-04-04T04:16:53.025Z,3.40
2023-04-04T04:19:21.461Z,3.47
2023-04-04T04:21:49.724Z,3.73
2023-04-04T04:24:17.937Z,3.27
2023-04-04T04:26:46.262Z,3.63
2023-04-04T04:29:14.425Z,3.20
2023-04-04T04:31:42.680Z,3.50
2023-04-04T04:34:12.232Z,3.30
2023-04-04T04:36:40.368Z,3.50
2023-04-04T04:39:08.671Z,3.47
2023-04-04T04:41:36.855Z,3.90
2023-04-04T04:44:05.036Z,3.43
2023-04-04T04:46:33.289Z,3.87
2023-04-04T04:49:01.563Z,3.40
2023-04-04T04:51:31.129Z,3.33
2023-04-04T04:53:59.402Z,3.30
2023-04-04T04:56:27.821Z,3.70
2023-04-04T04:58:56.213Z,3.70
2023-04-04T05:01:24.557Z,3.97
2023-04-04T05:03:53.549Z,3.43
2023-04-04T05:06:22.013Z,3.50
2023-04-04T05:08:51.511Z,3.80
2023-04-04T05:11:19.722Z,3.50
2023-04-04T05:13:48.458Z,3.70
2023-04-04T05:16:16.726Z,3.67
2023-04-04T05:18:45.593Z,3.83
2023-04-04T05:21:13.776Z,3.50
2023-04-04T05:23:42.378Z,3.80
2023-04-04T05:26:11.875Z,4.50
2023-04-04T05:28:40.763Z,3.50
2023-04-04T05:31:09.023Z,4.00
2023-04-04T05:33:37.193Z,3.90
2023-04-04T05:36:05.560Z,4.33
2023-04-04T05:38:33.800Z,4.30
2023-04-04T05:41:01.972Z,4.50
2023-04-04T05:43:31.812Z,3.90
2023-04-04T05:46:00.146Z,4.03
2023-04-04T05:48:28.325Z,4.40
2023-04-04T05:50:56.546Z,4.10
2023-04-04T05:53:24.791Z,4.57
2023-04-04T05:55:53.871Z,4.17
2023-04-04T05:58:22.323Z,4.80
2023-04-04T06:00:52.490Z,5.00
2023-04-04T06:03:22.098Z,4.60
2023-04-04T06:05:52.364Z,4.23
2023-04-04T06:08:20.815Z,4.47
2023-04-04T06:10:48.981Z,4.43
2023-04-04T06:13:17.183Z,4.30
2023-04-04T06:15:45.444Z,4.60
2023-04-04T06:18:16.601Z,4.70
2023-04-04T06:20:44.843Z,4.63
2023-04-04T06:23:13.088Z,4.20
2023-04-04T06:25:41.491Z,4.50
2023-04-04T06:28:10.984Z,4.47
2023-04-04T06:30:39.777Z,4.70
2023-04-04T06:33:08.103Z,4.47
2023-04-04T06:35:37.558Z,4.50
2023-04-04T06:38:05.828Z,4.20
2023-04-04T06:40:34.114Z,4.63
2023-04-04T06:43:02.550Z,4.90
2023-04-04T06:45:33.424Z,4.43
2023-04-04T06:48:02.352Z,3.90
2023-04-04T06:50:32.241Z,4.50
2023-04-04T06:53:02.114Z,4.30
2023-04-04T06:55:30.332Z,4.20
2023-04-04T06:57:58.541Z,4.20
2023-04-04T07:00:26.837Z,5.07
2023-04-04T07:03:00.083Z,7.27
2023-04-04T07:05:28.334Z,4.50
2023-04-04T07:07:57.146Z,4.17
2023-04-04T07:10:27.275Z,3.70
2023-04-04T07:12:55.469Z,4.10
2023-04-04T07:15:23.716Z,4.27
2023-04-04T07:17:52.134Z,4.33
2023-04-04T07:20:20.436Z,4.17
2023-04-04T07:22:48.618Z,3.83
2023-04-04T07:25:16.918Z,4.57
2023-04-04T07:27:46.454Z,4.63
2023-04-04T07:30:15.552Z,4.10
2023-04-04T07:32:43.856Z,4.17
2023-04-04T07:35:12.035Z,4.17
2023-04-04T07:37:40.582Z,4.30
2023-04-04T07:40:09.695Z,3.90
2023-04-04T07:42:37.984Z,4.13
2023-04-04T07:45:07.994Z,3.93
2023-04-04T07:47:36.236Z,4.17
2023-04-04T07:50:04.847Z,4.80
2023-04-04T07:52:33.067Z,4.10
2023-04-04T07:55:03.414Z,4.07
2023-04-04T07:57:31.851Z,3.93
2023-04-04T08:00:00.559Z,4.50
2023-04-04T08:02:30.146Z,3.83
2023-04-04T08:04:58.407Z,4.33
2023-04-04T08:07:28.139Z,3.57
2023-04-04T08:09:58.167Z,4.00
2023-04-04T08:12:26.417Z,3.57
2023-04-04T08:14:54.601Z,3.43
2023-04-04T08:17:22.836Z,2.80
2023-04-04T08:19:52.386Z,3.43
2023-04-04T08:22:20.518Z,2.67
2023-04-04T08:24:48.769Z,2.60
2023-04-04T08:27:17.084Z,3.07
2023-04-04T08:29:45.527Z,2.90
2023-04-04T08:32:14.685Z,2.17
2023-04-04T08:34:43.083Z,2.70
2023-04-04T08:37:12.585Z,2.47
2023-04-04T08:39:40.727Z,3.37
2023-04-04T08:42:10.688Z,2.97
2023-04-04T08:44:39.573Z,2.97
2023-04-04T08:47:10.324Z,3.67
2023-04-04T08:49:40.123Z,2.80
2023-04-04T08:52:08.524Z,2.80
2023-04-04T08:54:38.697Z,2.60
2023-04-04T08:57:06.925Z,2.77
2023-04-04T08:59:35.372Z,2.60
2023-04-04T09:02:07.113Z,3.17
2023-04-04T09:04:35.453Z,2.90
2023-04-04T09:07:05.276Z,2.73
2023-04-04T09:09:34.061Z,2.50
2023-04-04T09:12:03.655Z,2.70
2023-04-04T09:14:32.181Z,2.83
2023-04-04T09:17:00.493Z,2.50
2023-04-04T09:19:28.890Z,3.03
2023-04-04T09:21:57.718Z,2.70
2023-04-04T09:24:26.433Z,2.83
2023-04-04T09:26:57.117Z,3.07
2023-04-04T09:29:26.630Z,3.13
2023-04-04T09:31:55.040Z,4.17
2023-04-04T09:34:23.329Z,3.00
2023-04-04T09:36:51.749Z,3.30
2023-04-04T09:39:23.177Z,2.83
2023-04-04T09:41:51.579Z,3.10
2023-04-04T09:44:20.030Z,3.00
2023-04-04T09:46:52.443Z,3.43
2023-04-04T09:49:22.485Z,3.20
2023-04-04T09:51:51.008Z,3.13
2023-04-04T09:54:29.467Z,3.13
2023-04-04T09:56:58.608Z,3.57
2023-04-04T09:59:27.171Z,3.60
2023-04-04T10:01:57.613Z,3.10
2023-04-04T10:04:27.033Z,3.10
2023-04-04T10:06:55.736Z,3.10
2023-04-04T10:09:24.599Z,2.80
2023-04-04T10:11:53.046Z,2.97
2023-04-04T10:14:35.155Z,2.80
2023-04-04T10:17:09.248Z,3.67
2023-04-04T10:19:38.725Z,3.27
2023-04-04T10:22:07.371Z,3.93
2023-04-04T10:24:35.617Z,2.80
2023-04-04T10:27:03.842Z,3.03
2023-04-04T10:29:32.465Z,2.53
2023-04-04T10:32:03.418Z,3.33
2023-04-04T10:34:36.962Z,2.80
2023-04-04T10:39:39.406Z,3.10
2023-04-04T10:42:08.253Z,3.20
2023-04-04T10:44:41.619Z,2.97
2023-04-04T10:47:14.540Z,3.03
2023-04-04T10:49:45.669Z,3.00
2023-04-04T10:52:14.658Z,2.93
2023-04-04T10:54:43.986Z,3.03
2023-04-04T10:57:12.599Z,3.20
2023-04-04T10:59:55.634Z,3.33
2023-04-04T11:02:44.745Z,3.13
2023-04-04T11:05:14.848Z,3.57
2023-04-04T11:07:45.778Z,3.27
2023-04-04T11:10:23.621Z,3.10
2023-04-04T11:13:05.487Z,3.20
2023-04-04T11:15:55.096Z,3.23
2023-04-04T11:18:33.063Z,3.30
2023-04-04T11:21:05.554Z,3.50
2023-04-04T11:24:00.443Z,3.40
2023-04-04T11:26:36.622Z,3.43
2023-04-04T11:29:05.285Z,3.20
2023-04-04T11:31:35.604Z,3.57
2023-04-04T11:34:05.197Z,3.20
2023-04-04T11:36:54.150Z,3.60
2023-04-04T11:39:29.344Z,3.40
2023-04-04T11:41:58.735Z,3.33
2023-04-04T11:44:30.375Z,3.47
2023-04-04T11:47:02.312Z,3.53
2023-04-04T11:49:32.176Z,3.17
2023-04-04T11:52:05.396Z,3.83
2023-04-04T11:54:33.587Z,3.73
2023-04-04T11:57:03.438Z,3.87
2023-04-04T11:59:31.653Z,3.37
2023-04-04T12:02:01.140Z,3.57
2023-04-04T12:04:29.362Z,3.70
2023-04-04T12:06:57.931Z,3.67
2023-04-04T12:09:28.386Z,3.63
2023-04-04T12:11:58.007Z,3.83
2023-04-04T12:14:27.235Z,3.67
2023-04-04T12:16:56.731Z,3.40
2023-04-04T12:19:25.532Z,3.43
2023-04-04T12:21:54.042Z,3.50
2023-04-04T12:24:22.628Z,3.60
2023-04-04T12:26:53.261Z,3.60
2023-04-04T12:29:23.041Z,3.63
2023-04-04T12:31:51.856Z,3.57
2023-04-04T12:34:20.552Z,3.70
2023-04-04T12:36:49.739Z,3.80
2023-04-04T12:39:18.271Z,3.63
2023-04-04T12:41:49.756Z,3.63
2023-04-04T12:44:29.557Z,3.53
2023-04-04T12:47:01.455Z,4.00
2023-04-04T12:49:31.118Z,3.67
2023-04-04T12:52:03.755Z,3.37
2023-04-04T12:54:32.956Z,3.40
2023-04-04T12:57:04.367Z,3.87
2023-04-04T12:59:34.787Z,4.20
2023-04-04T13:02:03.489Z,3.77
2023-04-04T13:04:31.906Z,3.87
2023-04-04T13:07:00.567Z,3.57
2023-04-04T13:09:28.710Z,3.20
2023-04-04T13:12:01.960Z,3.43
2023-04-04T13:14:30.461Z,3.47
2023-04-04T13:17:08.450Z,3.40
2023-04-04T13:19:36.973Z,3.70
2023-04-04T13:22:05.229Z,3.63
2023-04-04T13:24:33.393Z,3.80
2023-04-04T13:27:01.873Z,3.67
2023-04-04T13:29:30.118Z,3.50
2023-04-04T13:31:58.315Z,4.03
2023-04-04T13:34:28.724Z,3.63
2023-04-04T13:36:57.815Z,3.37
2023-04-04T13:39:26.142Z,2.97
2023-04-04T13:41:54.382Z,3.43
2023-04-04T13:44:22.526Z,4.00
2023-04-04T13:46:50.656Z,3.50
2023-04-04T13:49:18.876Z,3.63
2023-04-04T13:51:48.843Z,3.60
2023-04-04T13:54:17.064Z,3.57
2023-04-04T13:56:45.347Z,3.20
2023-04-04T13:59:13.653Z,3.30
2023-04-04T14:01:42.119Z,3.40
2023-04-04T14:04:22.636Z,3.40
2023-04-04T14:06:53.204Z,3.60
2023-04-04T14:09:21.419Z,3.60
2023-04-04T14:11:49.729Z,3.23
2023-04-04T14:14:17.915Z,3.00
2023-04-04T14:16:46.251Z,3.07
2023-04-04T14:19:14.443Z,3.20
2023-04-04T14:21:42.668Z,3.00
2023-04-04T14:24:12.415Z,3.27
2023-04-04T14:26:40.574Z,3.20
2023-04-04T14:29:08.817Z,3.10
2023-04-04T14:31:37.104Z,3.30
2023-04-04T14:34:06.082Z,3.53
2023-04-04T14:36:34.232Z,3.13
2023-04-04T14:39:02.884Z,3.50
2023-04-04T14:41:32.431Z,3.80
2023-04-04T14:44:00.877Z,3.80
2023-04-04T14:46:29.139Z,3.60
2023-04-04T14:48:57.360Z,3.20
2023-04-04T14:54:17.251Z,3.00
2023-04-04T14:56:47.016Z,3.60
2023-04-04T14:59:15.390Z,3.30
2023-04-04T15:01:43.779Z,3.60
2023-04-04T15:04:12.432Z,3.30
2023-04-04T15:06:40.662Z,3.63
2023-04-04T15:09:09.580Z,3.20
2023-04-04T15:11:37.792Z,3.53
2023-04-04T15:14:07.449Z,3.40
2023-04-04T15:16:35.920Z,3.50
2023-04-04T15:19:04.169Z,3.23
2023-04-04T15:21:32.768Z,3.37
2023-04-04T15:24:00.927Z,3.70
2023-04-04T15:26:29.118Z,3.70
2023-04-04T15:28:57.474Z,3.70
2023-04-04T15:31:27.738Z,3.47
2023-04-04T15:33:59.218Z,3.70
2023-04-04T15:36:28.638Z,3.83
2023-04-04T15:38:57.228Z,3.77
2023-04-04T15:41:25.438Z,3.70
2023-04-04T15:43:53.614Z,4.07
2023-04-04T15:46:21.800Z,4.10
2023-04-04T15:48:52.259Z,3.43
2023-04-04T15:51:21.162Z,4.20
2023-04-04T15:53:49.481Z,3.77
2023-04-04T15:56:17.656Z,4.00
2023-04-04T15:58:45.952Z,4.13
2023-04-04T16:01:14.182Z,3.97
2023-04-04T16:03:42.830Z,3.90
2023-04-04T16:06:13.185Z,4.10
2023-04-04T16:08:41.641Z,4.03
2023-04-04T16:11:09.839Z,3.53
2023-04-04T16:13:37.976Z,3.83
2023-04-04T16:16:06.238Z,4.00
2023-04-04T16:18:34.415Z,3.70
2023-04-04T16:21:04.395Z,4.47
2023-04-04T16:23:34.445Z,4.40
2023-04-04T16:26:02.672Z,3.97
2023-04-04T16:28:30.906Z,4.40
2023-04-04T16:31:00.271Z,4.27
2023-04-04T16:33:28.502Z,4.03
2023-04-04T16:35:56.680Z,4.43
2023-04-04T16:38:24.857Z,4.47
2023-04-04T16:40:54.391Z,4.50
2023-04-04T16:43:22.630Z,4.30
2023-04-04T16:45:50.790Z,4.27
2023-04-04T16:48:18.945Z,4.20
2023-04-04T16:50:47.085Z,3.83
2023-04-04T16:53:15.282Z,4.23
2023-04-04T16:55:43.427Z,4.10
2023-04-04T16:58:12.992Z,4.30
2023-04-04T17:00:41.941Z,4.13
2023-04-04T17:03:10.493Z,4.30
2023-04-04T17:05:38.751Z,4.60
2023-04-04T17:08:07.305Z,4.80
2023-04-04T17:10:37.476Z,5.43
2023-04-04T17:13:06.411Z,6.00
2023-04-04T17:15:36.671Z,5.60
2023-04-04T17:18:05.543Z,4.93
2023-04-04T17:20:34.614Z,4.53
2023-04-04T17:23:02.973Z,4.50
2023-04-04T17:25:31.325Z,4.40
2023-04-04T17:27:59.564Z,4.60
2023-04-04T17:30:27.807Z,4.50
2023-04-04T17:32:57.527Z,4.47
2023-04-04T17:35:25.724Z,4.60
2023-04-04T17:37:53.986Z,5.33
2023-04-04T17:40:22.203Z,4.63
2023-04-04T17:42:50.348Z,5.33
2023-04-04T17:45:19.995Z,4.83
2023-04-04T17:47:48.294Z,5.10
2023-04-04T17:50:17.876Z,5.70
2023-04-04T17:52:46.260Z,5.20
2023-04-04T17:55:14.415Z,6.10
2023-04-04T17:57:44.814Z,6.47
2023-04-04T18:00:13.655Z,6.17
2023-04-04T18:02:41.950Z,6.07
2023-04-04T18:05:12.594Z,5.67
2023-04-04T18:07:42.308Z,5.93
2023-04-04T18:10:11.169Z,5.70
2023-04-04T18:12:39.383Z,5.80
2023-04-04T18:15:08.223Z,5.83
2023-04-04T18:17:36.430Z,5.90
2023-04-04T18:20:05.516Z,5.83
2023-04-04T18:22:34.486Z,6.40
2023-04-04T18:25:04.192Z,5.93
2023-04-04T18:27:32.334Z,6.10
2023-04-04T18:30:00.511Z,6.67
2023-04-04T18:32:29.099Z,6.20
2023-04-04T18:34:57.308Z,6.43
2023-04-04T18:37:25.490Z,5.70
2023-04-04T18:39:53.662Z,5.80
2023-04-04T18:42:25.006Z,6.60
2023-04-04T18:44:53.794Z,6.00
2023-04-04T18:47:22.294Z,5.90
2023-04-04T18:49:50.578Z,6.13
2023-04-04T18:52:18.717Z,6.20
2023-04-04T18:54:46.913Z,6.63
2023-04-04T18:57:16.391Z,6.00
2023-04-04T18:59:45.927Z,6.27
2023-04-04T19:02:14.096Z,6.50
2023-04-04T19:04:42.368Z,6.23
2023-04-04T19:07:12.663Z,6.67
2023-04-04T19:09:40.973Z,6.93
2023-04-04T19:12:09.203Z,6.27
2023-04-04T19:14:37.365Z,6.70
2023-04-04T19:17:06.843Z,6.63
2023-04-04T19:19:35.036Z,6.90
2023-04-04T19:22:03.193Z,7.40
2023-04-04T19:24:31.686Z,6.90
2023-04-04T19:26:59.891Z,12.03
2023-04-04T19:29:28.113Z,10.27
2023-04-04T19:31:56.555Z,7.00
2023-04-04T19:34:26.436Z,7.13
2023-04-04T19:36:54.590Z,7.67
2023-04-04T19:39:25.626Z,7.57
2023-04-04T19:41:53.813Z,8.33
2023-04-04T19:44:22.113Z,9.00
2023-04-04T19:46:50.541Z,8.50
2023-04-04T19:49:19.198Z,8.37
2023-04-04T19:51:53.132Z,9.00
2023-04-04T19:54:24.059Z,7.80
2023-04-04T19:56:52.761Z,7.73
2023-04-04T19:59:39.677Z,8.43
2023-04-04T20:02:08.473Z,8.53
2023-04-04T20:04:36.731Z,8.90
2023-04-04T20:07:06.373Z,8.27
2023-04-04T20:09:39.750Z,9.40
2023-04-04T20:12:09.422Z,9.40
2023-04-04T20:14:37.864Z,9.50
2023-04-04T20:17:06.083Z,8.53
2023-04-04T20:19:35.374Z,9.50
2023-04-04T20:22:03.606Z,8.57
2023-04-04T20:24:33.356Z,9.07
2023-04-04T20:27:03.002Z,8.97
2023-04-04T20:29:31.773Z,9.77
2023-04-04T20:32:00.897Z,9.43
2023-04-04T20:34:47.080Z,9.70
2023-04-04T20:37:16.163Z,9.90
2023-04-04T20:39:50.084Z,10.27
2023-04-04T20:42:32.367Z,9.77
2023-04-04T20:45:01.542Z,9.93
2023-04-04T20:47:31.040Z,10.20
2023-04-04T20:49:59.380Z,10.50
2023-04-04T20:52:27.608Z,10.17
2023-04-04T20:54:57.479Z,10.00
2023-04-04T20:57:26.399Z,10.60
2023-04-04T20:59:54.631Z,10.23
2023-04-04T21:02:23.520Z,10.00
2023-04-04T21:04:52.326Z,10.17
2023-04-04T21:07:44.479Z,10.77
2023-04-04T21:10:45.341Z,10.30
2023-04-04T21:13:13.470Z,10.30
2023-04-04T21:15:41.596Z,10.40
2023-04-04T21:18:10.741Z,10.30
2023-04-04T21:20:57.705Z,10.30
2023-04-04T21:23:31.208Z,10.00
2023-04-04T21:26:06.778Z,10.50
2023-04-04T21:28:35.905Z,10.73
2023-04-04T21:31:06.322Z,10.23
2023-04-04T21:33:34.486Z,10.17
2023-04-04T21:36:02.825Z,11.20
2023-04-04T21:38:31.685Z,10.63
2023-04-04T21:41:00.794Z,11.33
2023-04-04T21:43:30.490Z,10.67
2023-04-04T21:45:58.762Z,10.70
2023-04-04T21:48:27.232Z,10.83
2023-04-04T21:50:58.208Z,10.53
2023-04-04T21:53:26.404Z,10.83
2023-04-04T21:55:54.660Z,11.10
2023-04-04T21:58:22.842Z,10.23
2023-04-04T22:00:52.644Z,10.77
2023-04-04T22:03:20.830Z,10.37
2023-04-04T22:05:49.465Z,10.07
2023-04-04T22:08:17.674Z,10.07
2023-04-04T22:10:47.506Z,10.63
2023-04-04T22:13:17.233Z,10.43
2023-04-04T22:15:47.066Z,10.87
2023-04-04T22:18:16.679Z,10.13
2023-04-04T22:20:45.528Z,11.20
2023-04-04T22:23:15.404Z,11.07
2023-04-04T22:25:43.566Z,11.17
2023-04-04T22:28:11.831Z,10.60
2023-04-04T22:30:42.034Z,10.57
2023-04-04T22:33:10.816Z,10.57
2023-04-04T22:35:40.385Z,11.00
2023-04-04T22:38:08.522Z,11.20
2023-04-04T22:40:36.735Z,10.57
2023-04-04T22:43:06.076Z,10.37
2023-04-04T22:45:34.641Z,10.77
2023-04-04T22:48:03.635Z,10.07
2023-04-04T22:50:31.826Z,9.60
2023-04-04T22:53:01.357Z,10.07
2023-04-04T22:55:29.777Z,9.77
2023-04-04T22:57:58.020Z,9.73
2023-04-04T23:00:26.150Z,9.33
2023-04-04T23:02:54.358Z,9.43
2023-04-04T23:05:22.566Z,9.90
2023-04-04T23:07:53.667Z,9.73
2023-04-04T23:10:23.416Z,9.67
2023-04-04T23:12:51.850Z,9.57
2023-04-04T23:15:20.084Z,10.03
2023-04-04T23:17:48.322Z,9.43
2023-04-04T23:20:18.238Z,9.33
2023-04-04T23:22:46.755Z,9.77
2023-04-04T23:25:15.168Z,9.67
2023-04-04T23:27:44.742Z,9.47
2023-04-04T23:30:13.372Z,9.63
2023-04-04T23:32:42.230Z,9.27
2023-04-04T23:35:10.848Z,10.17
2023-04-04T23:37:39.134Z,9.20
2023-04-04T23:40:08.964Z,9.40
2023-04-04T23:42:37.202Z,9.67
2023-04-04T23:45:07.370Z,9.77
2023-04-04T23:47:35.788Z,9.50
2023-04-04T23:50:04.080Z,9.43
2023-04-04T23:52:32.322Z,9.57
2023-04-04T23:55:00.483Z,9.50
2023-04-04T23:57:28.807Z,9.40
2023-04-04T23:59:57.030Z,9.47
